createdAt,value
2017-11-08T00:00:26.533Z,9.30
2017-11-08T00:02:54.055Z,9.30
2017-11-08T00:05:21.717Z,9.20
2017-11-08T00:07:49.439Z,9.20
2017-11-08T00:10:17.033Z,9.20
2017-11-08T00:12:44.549Z,9.30
2017-11-08T00:15:12.122Z,9.30
2017-11-08T00:17:39.734Z,9.10
2017-11-08T00:20:08.019Z,9.20
2017-11-08T00:22:36.314Z,9.30
2017-11-08T00:25:03.824Z,9.30
2017-11-08T00:27:31.333Z,9.20
2017-11-08T00:29:58.873Z,9.30
2017-11-08T00:32:26.549Z,9.30
2017-11-08T00:34:54.137Z,9.30
2017-11-08T00:37:21.711Z,9.40
2017-11-08T00:39:49.273Z,9.50
2017-11-08T00:42:16.881Z,9.50
2017-11-08T00:44:44.404Z,9.50
2017-11-08T00:47:11.962Z,9.50
2017-11-08T00:49:39.508Z,9.40
2017-11-08T00:52:07.074Z,9.40
2017-11-08T00:54:34.615Z,9.40
2017-11-08T00:57:02.155Z,9.40
2017-11-08T00:59:29.688Z,9.50
2017-11-08T01:01:57.237Z,9.40
2017-11-08T01:04:25.656Z,9.20
2017-11-08T01:06:53.217Z,9.20
2017-11-08T01:09:20.779Z,9.10
2017-11-08T01:11:48.324Z,9.00
2017-11-08T01:14:15.916Z,8.90
2017-11-08T01:16:43.488Z,8.80
2017-11-08T01:19:11.078Z,8.80
2017-11-08T01:21:38.613Z,8.80
2017-11-08T01:24:06.195Z,8.80
2017-11-08T01:26:33.721Z,8.80
2017-11-08T01:29:01.277Z,8.70
2017-11-08T01:31:28.845Z,8.70
2017-11-08T01:33:56.442Z,8.60
2017-11-08T01:36:24.748Z,8.60
2017-11-08T01:38:52.285Z,8.60
2017-11-08T01:41:24.538Z,8.50
2017-11-08T01:43:54.901Z,8.50
2017-11-08T01:46:22.477Z,8.40
2017-11-08T01:48:50.004Z,8.40
2017-11-08T01:51:18.349Z,8.40
2017-11-08T01:53:45.886Z,8.40
2017-11-08T01:56:13.433Z,8.40
2017-11-08T01:58:40.975Z,8.40
2017-11-08T02:01:08.553Z,8.30
2017-11-08T02:03:36.127Z,8.30
2017-11-08T02:06:03.642Z,8.20
2017-11-08T02:08:32.009Z,8.10
2017-11-08T02:10:59.521Z,8.10
2017-11-08T02:13:27.058Z,8.10
2017-11-08T02:15:56.375Z,8.20
2017-11-08T02:18:23.934Z,8.10
2017-11-08T02:20:51.462Z,8.10
2017-11-08T02:23:19.729Z,8.20
2017-11-08T02:25:48.047Z,8.10
2017-11-08T02:28:17.532Z,8.10
2017-11-08T02:30:45.099Z,8.00
2017-11-08T02:33:14.610Z,8.00
2017-11-08T02:35:42.170Z,7.90
2017-11-08T02:38:09.707Z,7.90
2017-11-08T02:40:38.014Z,8.00
2017-11-08T02:43:09.371Z,7.90
2017-11-08T02:45:36.935Z,8.00
2017-11-08T02:48:04.459Z,8.00
2017-11-08T02:50:32.793Z,7.90
2017-11-08T02:53:00.358Z,7.90
2017-11-08T02:55:27.906Z,7.90
2017-11-08T02:57:55.463Z,7.90
2017-11-08T03:00:22.988Z,7.80
2017-11-08T03:02:51.674Z,7.80
2017-11-08T03:05:19.211Z,7.80
2017-11-08T03:07:47.507Z,7.70
2017-11-08T03:10:15.077Z,7.70
2017-11-08T03:12:42.610Z,7.80
2017-11-08T03:15:10.906Z,7.80
2017-11-08T03:17:38.440Z,7.80
2017-11-08T03:20:06.747Z,7.70
2017-11-08T03:22:34.272Z,7.70
2017-11-08T03:25:01.779Z,7.70
2017-11-08T03:27:29.326Z,7.80
2017-11-08T03:29:56.856Z,7.80
2017-11-08T03:32:25.305Z,7.90
2017-11-08T03:34:52.846Z,7.90
2017-11-08T03:37:20.391Z,7.80
2017-11-08T03:39:47.906Z,7.90
2017-11-08T03:42:16.207Z,7.80
2017-11-08T03:44:43.849Z,7.80
2017-11-08T03:47:11.395Z,7.80
2017-11-08T03:49:38.927Z,7.90
2017-11-08T03:52:06.444Z,8.00
2017-11-08T03:54:33.971Z,8.10
2017-11-08T03:57:01.554Z,8.20
2017-11-08T03:59:29.859Z,8.40
2017-11-08T04:01:57.406Z,8.30
2017-11-08T04:04:24.938Z,8.50
2017-11-08T04:06:52.561Z,8.50
2017-11-08T04:09:20.087Z,8.60
2017-11-08T04:11:48.367Z,8.70
2017-11-08T04:14:16.670Z,8.60
2017-11-08T04:16:44.199Z,8.60
2017-11-08T04:19:11.723Z,8.60
2017-11-08T04:21:39.277Z,8.60
2017-11-08T04:24:06.807Z,8.70
2017-11-08T04:43:53.392Z,8.80
2017-11-08T04:46:20.943Z,9.00
2017-11-08T04:48:48.497Z,9.00
2017-11-08T04:51:16.071Z,8.90
2017-11-08T04:53:44.359Z,9.10
2017-11-08T04:56:12.654Z,9.20
2017-11-08T04:58:40.191Z,9.10
2017-11-08T05:01:07.786Z,9.20
2017-11-08T05:03:35.299Z,9.20
2017-11-08T05:06:03.654Z,9.30
2017-11-08T05:08:31.169Z,9.30
2017-11-08T05:10:58.742Z,9.30
2017-11-08T05:13:26.344Z,9.30
2017-11-08T05:15:53.875Z,9.20
2017-11-08T05:18:21.410Z,9.10
2017-11-08T05:20:48.942Z,9.20
2017-11-08T05:23:16.487Z,9.10
2017-11-08T05:25:44.010Z,9.20
2017-11-08T05:28:11.537Z,9.20
2017-11-08T05:30:39.989Z,9.30
2017-11-08T05:33:07.546Z,9.30
2017-11-08T05:35:35.112Z,9.40
2017-11-08T05:38:02.639Z,9.30
2017-11-08T05:40:30.182Z,9.40
2017-11-08T05:42:57.746Z,9.20
2017-11-08T05:45:25.296Z,9.10
2017-11-08T05:47:52.791Z,9.10
2017-11-08T05:50:20.301Z,9.10
2017-11-08T05:52:47.828Z,9.00
2017-11-08T05:55:15.341Z,8.90
2017-11-08T05:57:42.865Z,8.80
2017-11-08T06:00:10.394Z,8.80
2017-11-08T06:02:37.921Z,8.70
2017-11-08T06:05:05.892Z,8.70
2017-11-08T06:07:33.419Z,8.60
2017-11-08T06:10:01.724Z,8.60
2017-11-08T06:12:29.284Z,8.60
2017-11-08T06:14:56.822Z,8.50
2017-11-08T06:17:25.251Z,8.60
2017-11-08T06:19:52.785Z,8.60
2017-11-08T06:22:20.321Z,8.60
2017-11-08T06:24:47.868Z,8.50
2017-11-08T06:27:15.403Z,8.50
2017-11-08T06:29:42.981Z,8.50
2017-11-08T06:32:10.503Z,8.50
2017-11-08T06:34:38.043Z,8.50
2017-11-08T06:37:05.591Z,8.50
2017-11-08T06:39:33.126Z,8.50
2017-11-08T06:42:00.688Z,8.50
2017-11-08T06:44:28.990Z,8.40
2017-11-08T06:46:56.512Z,8.40
2017-11-08T06:49:24.082Z,8.40
2017-11-08T06:51:52.396Z,8.40
2017-11-08T06:54:19.936Z,8.40
2017-11-08T06:56:47.459Z,8.30
2017-11-08T06:59:14.977Z,8.40
2017-11-08T07:01:42.516Z,8.40
2017-11-08T07:04:10.065Z,8.50
2017-11-08T07:06:38.383Z,8.80
2017-11-08T07:09:06.020Z,8.80
2017-11-08T07:11:33.557Z,8.80
2017-11-08T07:14:01.089Z,9.00
2017-11-08T07:16:28.747Z,9.00
2017-11-08T07:18:57.081Z,9.00
2017-11-08T07:21:24.638Z,9.00
2017-11-08T07:23:52.194Z,9.00
2017-11-08T07:26:19.716Z,8.90
2017-11-08T07:28:47.251Z,8.80
2017-11-08T07:31:14.762Z,8.90
2017-11-08T07:33:43.083Z,8.90
2017-11-08T07:36:10.607Z,8.90
2017-11-08T07:38:38.168Z,8.90
2017-11-08T07:41:06.479Z,8.90
2017-11-08T07:43:34.036Z,8.90
2017-11-08T07:46:01.558Z,8.80
2017-11-08T07:48:29.907Z,8.80
2017-11-08T07:50:57.406Z,8.80
2017-11-08T07:53:25.858Z,8.90
2017-11-08T07:55:58.960Z,8.90
2017-11-08T07:58:27.281Z,8.90
2017-11-08T08:00:54.801Z,8.90
2017-11-08T08:03:22.310Z,8.90
2017-11-08T08:05:49.834Z,8.90
2017-11-08T08:08:17.415Z,8.90
2017-11-08T08:10:44.969Z,9.00
2017-11-08T08:13:12.505Z,9.00
2017-11-08T08:15:40.057Z,9.00
2017-11-08T08:18:07.610Z,9.10
2017-11-08T08:27:20.831Z,9.10
2017-11-08T08:29:48.361Z,9.20
2017-11-08T08:32:16.649Z,9.30
2017-11-08T08:34:44.962Z,9.30
2017-11-08T08:37:12.484Z,9.30
2017-11-08T08:39:39.993Z,9.50
2017-11-08T08:42:07.508Z,9.50
2017-11-08T08:44:35.084Z,9.60
2017-11-08T08:47:10.058Z,9.70
2017-11-08T08:52:42.676Z,9.90
2017-11-08T08:55:10.291Z,9.90
2017-11-08T08:57:37.808Z,9.90
2017-11-08T09:00:05.333Z,9.90
2017-11-08T09:02:32.863Z,9.90
2017-11-08T09:05:00.384Z,10.00
2017-11-08T09:07:27.923Z,10.00
2017-11-08T09:09:55.453Z,10.10
2017-11-08T09:12:22.965Z,10.00
2017-11-08T09:14:50.498Z,10.00
2017-11-08T09:17:18.070Z,9.90
2017-11-08T09:19:45.609Z,9.90
2017-11-08T09:22:13.302Z,9.80
2017-11-08T09:24:42.402Z,10.00
2017-11-08T09:27:10.679Z,10.10
2017-11-08T09:29:39.776Z,10.20
2017-11-08T09:32:10.038Z,10.40
2017-11-08T09:34:47.546Z,10.40
2017-11-08T09:37:15.079Z,10.60
2017-11-08T09:39:42.620Z,10.70
2017-11-08T09:42:10.142Z,10.80
2017-11-08T09:44:37.673Z,10.90
2017-11-08T09:47:11.691Z,11.10
2017-11-08T09:49:39.336Z,11.30
2017-11-08T09:52:06.891Z,11.40
2017-11-08T09:54:34.428Z,11.50
2017-11-08T09:57:08.465Z,11.70
2017-11-08T09:59:37.769Z,11.70
2017-11-08T10:02:06.150Z,12.10
2017-11-08T10:04:33.650Z,12.40
2017-11-08T10:07:01.181Z,12.60
2017-11-08T10:09:29.681Z,12.60
2017-11-08T10:12:02.110Z,13.00
2017-11-08T10:14:29.649Z,13.40
2017-11-08T10:16:57.935Z,14.00
2017-11-08T10:19:30.043Z,14.00
2017-11-08T10:21:57.561Z,14.20
2017-11-08T10:24:25.153Z,14.20
2017-11-08T10:26:52.665Z,14.40
2017-11-08T10:29:20.985Z,14.20
2017-11-08T10:31:48.507Z,14.20
2017-11-08T10:34:16.069Z,14.10
2017-11-08T10:36:44.362Z,14.70
2017-11-08T10:39:11.944Z,14.70
2017-11-08T10:41:39.502Z,14.60
2017-11-08T10:44:06.984Z,14.90
2017-11-08T10:46:34.561Z,15.10
2017-11-08T10:49:06.026Z,15.50
2017-11-08T10:51:33.581Z,15.90
2017-11-08T10:54:01.144Z,16.80
2017-11-08T10:56:28.692Z,17.30
2017-11-08T10:59:01.023Z,17.20
2017-11-08T11:01:28.556Z,16.40
2017-11-08T11:03:56.067Z,16.10
2017-11-08T11:06:23.585Z,15.80
2017-11-08T11:08:51.131Z,15.20
2017-11-08T11:11:18.709Z,14.90
2017-11-08T11:13:48.028Z,14.80
2017-11-08T11:16:16.373Z,14.60
2017-11-08T11:18:43.910Z,14.40
2017-11-08T11:21:11.441Z,14.30
2017-11-08T11:23:48.521Z,13.60
2017-11-08T11:26:16.852Z,13.60
2017-11-08T11:28:44.384Z,13.60
2017-11-08T11:31:11.918Z,13.50
2017-11-08T11:33:39.448Z,13.50
2017-11-08T11:36:07.008Z,13.50
2017-11-08T11:38:37.225Z,13.50
2017-11-08T11:41:04.751Z,13.40
2017-11-08T11:43:32.263Z,13.60
2017-11-08T11:45:59.805Z,13.50
2017-11-08T11:48:32.136Z,13.40
2017-11-08T11:51:06.089Z,13.20
2017-11-08T11:53:33.601Z,13.20
2017-11-08T11:56:01.137Z,13.00
2017-11-08T11:58:28.686Z,12.90
2017-11-08T12:00:56.958Z,12.70
2017-11-08T12:03:24.538Z,12.70
2017-11-08T12:05:52.083Z,12.80
2017-11-08T12:08:20.257Z,12.90
2017-11-08T12:10:47.770Z,12.90
2017-11-08T12:13:15.296Z,12.80
2017-11-08T12:15:42.829Z,12.80
2017-11-08T12:18:10.335Z,12.90
2017-11-08T12:20:38.627Z,12.70
2017-11-08T12:23:06.142Z,12.70
2017-11-08T12:25:33.660Z,12.50
2017-11-08T12:28:01.259Z,12.30
2017-11-08T12:30:28.784Z,12.40
2017-11-08T12:32:56.368Z,12.50
2017-11-08T12:35:24.799Z,12.40
2017-11-08T12:37:52.355Z,12.40
2017-11-08T12:40:20.673Z,12.30
2017-11-08T12:42:50.158Z,12.40
2017-11-08T12:45:17.701Z,12.40
2017-11-08T12:47:45.393Z,12.40
2017-11-08T12:50:12.921Z,12.30
2017-11-08T12:52:41.311Z,11.80
2017-11-08T12:55:08.880Z,11.80
2017-11-08T12:57:37.280Z,11.80
2017-11-08T13:00:04.843Z,11.70
2017-11-08T13:02:32.494Z,11.80
2017-11-08T13:05:00.035Z,11.90
2017-11-08T13:07:27.832Z,11.80
2017-11-08T13:09:55.406Z,11.90
2017-11-08T13:12:22.934Z,11.90
2017-11-08T13:14:50.453Z,12.00
2017-11-08T13:17:18.008Z,12.10
2017-11-08T13:19:45.520Z,12.00
2017-11-08T13:22:13.038Z,11.90
2017-11-08T13:24:40.547Z,12.00
2017-11-08T13:27:08.077Z,12.10
2017-11-08T13:29:35.680Z,12.30
2017-11-08T13:32:04.056Z,12.40
2017-11-08T13:34:31.581Z,12.50
2017-11-08T13:36:59.209Z,12.70
2017-11-08T13:39:26.737Z,12.80
2017-11-08T13:41:54.295Z,12.90
2017-11-08T13:44:21.826Z,12.80
2017-11-08T13:46:49.384Z,12.80
2017-11-08T13:49:17.660Z,12.70
2017-11-08T13:51:45.976Z,12.60
2017-11-08T13:54:13.505Z,12.50
2017-11-08T13:56:41.055Z,12.40
2017-11-08T13:59:09.432Z,12.00
2017-11-08T14:01:36.963Z,12.00
2017-11-08T14:04:07.313Z,11.90
2017-11-08T14:06:34.966Z,11.80
2017-11-08T14:09:02.476Z,11.70
2017-11-08T14:11:29.997Z,11.60
2017-11-08T14:13:57.557Z,11.60
2017-11-08T14:16:25.874Z,11.50
2017-11-08T14:18:53.397Z,11.50
2017-11-08T14:21:20.932Z,11.40
2017-11-08T14:23:48.472Z,11.30
2017-11-08T14:26:16.011Z,11.10
2017-11-08T14:28:43.589Z,10.80
2017-11-08T14:31:11.160Z,10.70
2017-11-08T14:33:40.538Z,10.80
2017-11-08T14:36:09.023Z,10.80
2017-11-08T14:38:36.541Z,10.90
2017-11-08T14:41:05.387Z,10.90
2017-11-08T14:43:32.953Z,10.90
2017-11-08T14:46:00.536Z,10.90
2017-11-08T14:48:28.126Z,10.70
2017-11-08T14:50:56.903Z,10.50
2017-11-08T14:53:30.002Z,10.30
2017-11-08T14:55:57.602Z,10.20
2017-11-08T14:58:25.233Z,10.10
2017-11-08T15:00:52.755Z,10.20
2017-11-08T15:03:20.293Z,10.20
2017-11-08T15:05:47.834Z,10.30
2017-11-08T15:08:15.467Z,10.30
2017-11-08T15:10:43.008Z,10.30
2017-11-08T15:13:11.301Z,10.30
2017-11-08T15:15:39.642Z,10.30
2017-11-08T15:18:07.160Z,10.30
2017-11-08T15:20:36.577Z,10.30
2017-11-08T15:23:05.165Z,10.20
2017-11-08T15:25:32.671Z,10.10
2017-11-08T15:28:01.065Z,10.30
2017-11-08T15:30:28.600Z,10.30
2017-11-08T15:32:56.152Z,10.20
2017-11-08T15:35:23.700Z,10.20
2017-11-08T15:37:51.281Z,10.20
2017-11-08T15:40:20.883Z,10.30
2017-11-08T15:42:48.446Z,10.30
2017-11-08T15:45:16.029Z,10.30
2017-11-08T15:47:47.261Z,10.40
2017-11-08T15:50:14.859Z,10.30
2017-11-08T15:52:42.365Z,10.40
2017-11-08T15:55:09.972Z,10.40
2017-11-08T15:57:37.482Z,10.20
2017-11-08T16:00:05.022Z,10.10
2017-11-08T16:02:32.566Z,10.00
2017-11-08T16:05:00.089Z,9.90
2017-11-08T16:07:28.385Z,9.90
2017-11-08T16:09:55.928Z,9.90
2017-11-08T16:12:24.266Z,9.90
2017-11-08T16:14:51.837Z,9.90
2017-11-08T16:17:19.340Z,10.00
2017-11-08T16:19:46.869Z,10.10
2017-11-08T16:22:14.455Z,10.20
2017-11-08T16:24:42.773Z,10.30
2017-11-08T16:27:10.292Z,10.20
2017-11-08T16:29:37.973Z,10.30
2017-11-08T16:32:05.527Z,10.20
2017-11-08T16:34:33.054Z,10.20
2017-11-08T16:37:00.953Z,10.20
2017-11-08T16:39:28.498Z,10.20
2017-11-08T16:41:56.796Z,10.40
2017-11-08T16:44:24.658Z,10.40
2017-11-08T16:46:52.172Z,10.30
2017-11-08T16:49:19.912Z,10.30
2017-11-08T16:51:47.780Z,10.40
2017-11-08T16:54:15.320Z,10.40
2017-11-08T16:56:43.614Z,10.40
2017-11-08T16:59:11.179Z,10.40
2017-11-08T17:01:38.730Z,10.30
2017-11-08T17:04:06.257Z,10.30
2017-11-08T17:06:33.815Z,10.30
2017-11-08T17:09:02.176Z,10.20
2017-11-08T17:11:29.721Z,10.20
2017-11-08T17:13:57.237Z,10.10
2017-11-08T17:16:24.829Z,10.00
2017-11-08T17:18:53.688Z,10.00
2017-11-08T17:21:21.267Z,10.10
2017-11-08T17:23:48.780Z,10.10
2017-11-08T17:26:16.450Z,10.10
2017-11-08T17:28:44.182Z,10.10
2017-11-08T17:31:12.549Z,10.10
2017-11-08T17:33:41.090Z,9.90
2017-11-08T17:36:08.650Z,9.80
2017-11-08T17:38:36.475Z,9.70
2017-11-08T17:41:04.181Z,9.80
2017-11-08T17:43:32.201Z,9.90
2017-11-08T17:46:00.577Z,9.90
2017-11-08T17:48:28.968Z,9.90
2017-11-08T17:50:56.548Z,9.80
2017-11-08T17:53:24.891Z,9.70
2017-11-08T17:55:52.407Z,9.70
2017-11-08T17:58:20.851Z,9.70
2017-11-08T18:00:49.152Z,9.70
2017-11-08T18:03:17.524Z,9.70
2017-11-08T18:05:45.039Z,9.70
2017-11-08T18:08:12.549Z,9.70
2017-11-08T18:10:40.275Z,9.70
2017-11-08T18:13:08.419Z,9.60
2017-11-08T18:15:36.082Z,9.60
2017-11-08T18:18:03.697Z,9.70
2017-11-08T18:20:31.318Z,9.60
2017-11-08T18:22:59.023Z,9.60
2017-11-08T18:25:27.771Z,9.60
2017-11-08T18:27:55.313Z,9.60
2017-11-08T18:30:22.832Z,9.70
2017-11-08T18:32:50.418Z,9.70
2017-11-08T18:35:17.952Z,9.50
2017-11-08T18:37:45.563Z,9.60
2017-11-08T18:40:13.108Z,9.70
2017-11-08T18:42:41.424Z,9.60
2017-11-08T18:45:09.980Z,9.50
2017-11-08T18:47:37.563Z,9.50
2017-11-08T18:50:05.114Z,9.30
2017-11-08T18:52:32.680Z,9.40
2017-11-08T18:55:01.447Z,9.50
2017-11-08T18:57:28.990Z,9.40
2017-11-08T18:59:57.591Z,9.50
2017-11-08T19:02:25.122Z,9.50
2017-11-08T19:04:53.535Z,9.40
2017-11-08T19:07:21.065Z,9.40
2017-11-08T19:09:48.722Z,9.50
2017-11-08T19:12:16.252Z,9.50
2017-11-08T19:14:43.973Z,9.50
2017-11-08T19:17:11.847Z,9.50
2017-11-08T19:19:39.667Z,9.30
2017-11-08T19:22:07.533Z,9.30
2017-11-08T19:24:35.825Z,9.30
2017-11-08T19:27:03.592Z,9.30
2017-11-08T19:29:31.332Z,9.20
2017-11-08T19:32:00.537Z,9.30
2017-11-08T19:34:28.040Z,9.30
2017-11-08T19:36:56.489Z,9.20
2017-11-08T19:39:24.251Z,9.20
2017-11-08T19:41:52.534Z,9.20
2017-11-08T19:44:20.293Z,9.20
2017-11-08T19:46:47.820Z,9.30
2017-11-08T19:49:16.177Z,9.20
2017-11-08T19:51:43.982Z,9.20
2017-11-08T19:54:12.325Z,9.20
2017-11-08T19:56:39.943Z,9.20
2017-11-08T19:59:08.201Z,9.20
2017-11-08T20:01:36.536Z,9.30
2017-11-08T20:04:04.205Z,9.30
2017-11-08T20:06:31.740Z,9.30
2017-11-08T20:08:59.465Z,9.40
2017-11-08T20:11:27.742Z,9.40
2017-11-08T20:13:56.230Z,9.30
2017-11-08T20:16:24.932Z,9.30
2017-11-08T20:18:54.183Z,9.30
2017-11-08T20:21:21.805Z,9.20
2017-11-08T20:23:49.526Z,9.30
2017-11-08T20:26:17.103Z,9.30
2017-11-08T20:28:44.682Z,9.30
2017-11-08T20:31:13.105Z,9.30
2017-11-08T20:33:40.899Z,9.20
2017-11-08T20:36:10.182Z,9.30
2017-11-08T20:38:38.782Z,9.30
2017-11-08T20:41:07.184Z,9.20
2017-11-08T20:43:34.760Z,9.30
2017-11-08T20:46:04.056Z,9.40
2017-11-08T20:48:31.665Z,9.40
2017-11-08T20:50:59.805Z,9.50
2017-11-08T20:53:32.951Z,9.20
2017-11-08T20:56:03.563Z,9.30
2017-11-08T20:58:31.970Z,9.30
2017-11-08T21:00:59.544Z,9.20
2017-11-08T21:03:28.825Z,9.30
2017-11-08T21:05:56.462Z,9.30
2017-11-08T21:08:24.135Z,9.30
2017-11-08T21:10:51.740Z,9.30
2017-11-08T21:13:19.611Z,9.20
2017-11-08T21:15:47.213Z,9.20
2017-11-08T21:18:14.932Z,9.20
2017-11-08T21:20:42.832Z,9.00
2017-11-08T21:23:10.379Z,9.00
2017-11-08T21:25:38.696Z,9.00
2017-11-08T21:28:09.091Z,9.10
2017-11-08T21:30:36.918Z,9.10
2017-11-08T21:33:04.515Z,9.10
2017-11-08T21:35:32.091Z,9.10
2017-11-08T21:37:59.697Z,9.10
2017-11-08T21:40:29.145Z,9.10
2017-11-08T21:42:56.677Z,9.10
2017-11-08T21:45:25.208Z,9.10
2017-11-08T21:47:52.733Z,9.20
2017-11-08T21:50:21.332Z,9.20
2017-11-08T21:52:49.067Z,9.30
2017-11-08T21:55:17.572Z,9.00
2017-11-08T21:57:46.089Z,9.10
2017-11-08T22:00:16.065Z,9.10
2017-11-08T22:02:43.589Z,9.30
2017-11-08T22:05:11.319Z,9.20
2017-11-08T22:07:39.787Z,9.30
2017-11-08T22:10:07.332Z,9.30
2017-11-08T22:12:34.993Z,9.20
2017-11-08T22:15:02.758Z,8.90
2017-11-08T22:17:30.988Z,8.80
2017-11-08T22:19:59.283Z,8.70
2017-11-08T22:22:26.834Z,8.70
2017-11-08T22:24:55.328Z,8.80
2017-11-08T22:27:23.670Z,8.80
2017-11-08T22:29:51.283Z,8.70
2017-11-08T22:32:20.202Z,8.80
2017-11-08T22:34:48.154Z,8.80
2017-11-08T22:37:16.745Z,8.60
2017-11-08T22:39:45.389Z,8.60
2017-11-08T22:42:13.675Z,8.90
2017-11-08T22:44:42.164Z,8.90
2017-11-08T22:47:09.899Z,8.90
2017-11-08T22:49:38.408Z,9.00
2017-11-08T22:52:06.918Z,9.00
2017-11-08T22:54:34.435Z,9.00
2017-11-08T22:57:02.789Z,8.80
2017-11-08T22:59:30.880Z,8.80
2017-11-08T23:01:59.401Z,8.80
2017-11-08T23:04:27.854Z,8.70
2017-11-08T23:06:56.051Z,8.70
2017-11-08T23:09:24.534Z,8.70
2017-11-08T23:11:52.055Z,8.70
2017-11-08T23:14:19.602Z,8.60
2017-11-08T23:16:47.096Z,8.50
2017-11-08T23:19:14.628Z,8.50
2017-11-08T23:21:42.155Z,8.50
2017-11-08T23:24:09.677Z,8.50
2017-11-08T23:26:37.960Z,8.70
2017-11-08T23:29:05.487Z,8.70
2017-11-08T23:31:33.024Z,8.70
2017-11-08T23:34:00.565Z,8.90
2017-11-08T23:36:28.100Z,8.90
2017-11-08T23:38:55.615Z,8.90
2017-11-08T23:41:23.182Z,8.90
2017-11-08T23:43:50.889Z,8.80
2017-11-08T23:46:18.421Z,8.80
2017-11-08T23:48:45.983Z,8.80
2017-11-08T23:51:15.445Z,8.90
2017-11-08T23:53:44.921Z,8.70
2017-11-08T23:56:12.427Z,8.70
2017-11-08T23:58:39.943Z,8.80
